Time;durP1;ratioP1;P1;durP2;ratioP2;P2;SDS_P1;SDS_P2;PMS_P1;PMS_P2;Temp;Humidity;BMP_temperature;BMP_pressure;BME280_temperature;BME280_humidity;BME280_pressure;Samples;Min_cycle;Max_cycle;Signal;HPM_P1;HPM_P2
2022/05/23 00:01:50;;;;;;;3.33;2.13;;;;;;;;;;5061771;28;20064;-86
2022/05/23 00:04:16;;;;;;;3.65;2.53;;;;;;;;;;5065409;28;20020;-87
2022/05/23 00:06:43;;;;;;;2.75;2.05;;;;;;;;;;5058836;28;20469;-86
2022/05/23 00:09:09;;;;;;;5.72;2.20;;;;;;;;;;5062738;28;20060;-87
2022/05/23 00:11:35;;;;;;;3.42;1.88;;;;;;;;;;5061131;28;20028;-88
2022/05/23 00:14:01;;;;;;;4.35;2.28;;;;;;;;;;5060384;28;20085;-87
2022/05/23 00:16:31;;;;;;;3.28;1.90;;;;;;;;;;5062782;28;20040;-86
2022/05/23 00:18:57;;;;;;;2.17;1.63;;;;;;;;;;5061532;28;20028;-86
2022/05/23 00:21:22;;;;;;;3.28;1.75;;;;;;;;;;5059628;28;20029;-90
2022/05/23 00:23:48;;;;;;;3.13;1.85;;;;;;;;;;5060404;28;20516;-86
2022/05/23 00:26:17;;;;;;;3.05;1.75;;;;;;;;;;5061158;28;20108;-86
2022/05/23 00:28:42;;;;;;;2.63;1.97;;;;;;;;;;5059915;28;20480;-85
2022/05/23 00:31:08;;;;;;;2.50;1.80;;;;;;;;;;5066708;28;20044;-85
2022/05/23 00:36:20;;;;;;;4.80;1.90;;;;;;;;;;5049126;28;20052;-88
2022/05/23 00:38:46;;;;;;;3.42;2.08;;;;;;;;;;5060116;28;20094;-84
2022/05/23 00:44:24;;;;;;;2.78;1.90;;;;;;;;;;5061642;28;20043;-84
2022/05/23 00:47:17;;;;;;;2.53;1.52;;;;;;;;;;5068810;28;20116;-86
2022/05/23 00:49:51;;;;;;;2.28;1.80;;;;;;;;;;5054527;28;20702;-84
2022/05/23 00:52:22;;;;;;;3.35;1.80;;;;;;;;;;5064561;28;20025;-86
2022/05/23 00:54:50;;;;;;;2.83;1.80;;;;;;;;;;5055245;28;20027;-85
2022/05/23 00:57:20;;;;;;;2.00;1.58;;;;;;;;;;5065125;28;20523;-87
2022/05/23 00:59:47;;;;;;;2.83;1.80;;;;;;;;;;5062186;28;20117;-85
2022/05/23 01:02:13;;;;;;;2.58;2.20;;;;;;;;;;5064542;28;20067;-89
2022/05/23 01:04:40;;;;;;;2.65;1.60;;;;;;;;;;5062938;28;20036;-88
2022/05/23 01:07:06;;;;;;;2.85;2.03;;;;;;;;;;5058979;28;20103;-85
2022/05/23 01:09:33;;;;;;;1.77;1.40;;;;;;;;;;5067041;28;20021;-86
2022/05/23 01:11:59;;;;;;;3.97;2.30;;;;;;;;;;5070185;28;20016;-89
2022/05/23 01:14:26;;;;;;;3.80;2.17;;;;;;;;;;5060430;28;20044;-91
2022/05/23 01:16:52;;;;;;;4.80;2.33;;;;;;;;;;5065811;28;20384;-86
2022/05/23 01:19:18;;;;;;;3.78;2.30;;;;;;;;;;5063052;28;20029;-88
2022/05/23 01:21:46;;;;;;;5.70;2.72;;;;;;;;;;5061171;28;20036;-87
2022/05/23 01:24:29;;;;;;;3.60;2.75;;;;;;;;;;5064186;28;20028;-87
2022/05/23 01:26:56;;;;;;;3.40;2.80;;;;;;;;;;5066021;28;20035;-85
2022/05/23 01:29:22;;;;;;;4.47;3.25;;;;;;;;;;5063720;28;20053;-90
2022/05/23 01:31:48;;;;;;;4.28;3.05;;;;;;;;;;5066645;28;20116;-88
2022/05/23 01:34:13;;;;;;;4.60;3.00;;;;;;;;;;5065025;28;20131;-87
2022/05/23 01:36:39;;;;;;;4.05;2.83;;;;;;;;;;5064799;28;20028;-85
2022/05/23 01:39:04;;;;;;;3.50;2.97;;;;;;;;;;5067088;28;20074;-85
2022/05/23 01:41:30;;;;;;;3.78;3.35;;;;;;;;;;5067375;28;20025;-86
2022/05/23 01:43:55;;;;;;;4.55;3.30;;;;;;;;;;5065553;28;20036;-87
2022/05/23 01:46:21;;;;;;;4.13;3.10;;;;;;;;;;5061378;28;20446;-86
2022/05/23 01:48:47;;;;;;;5.25;3.15;;;;;;;;;;5065341;28;20033;-85
2022/05/23 01:51:12;;;;;;;3.60;3.05;;;;;;;;;;5071513;28;20024;-88
2022/05/23 01:53:38;;;;;;;5.65;3.28;;;;;;;;;;5072189;28;20081;-87
2022/05/23 01:56:04;;;;;;;6.72;3.45;;;;;;;;;;5068707;28;20029;-87
2022/05/23 02:01:15;;;;;;;4.55;3.10;;;;;;;;;;5062832;28;20091;-85
2022/05/23 02:03:42;;;;;;;4.95;3.83;;;;;;;;;;5067331;28;20028;-85
2022/05/23 02:06:08;;;;;;;3.85;3.13;;;;;;;;;;5073121;28;20029;-86
2022/05/23 02:08:38;;;;;;;4.95;3.15;;;;;;;;;;5070920;28;20382;-84
2022/05/23 02:11:06;;;;;;;5.22;3.28;;;;;;;;;;5070428;28;20185;-87
2022/05/23 02:13:37;;;;;;;6.22;3.10;;;;;;;;;;5073450;28;20032;-87
2022/05/23 02:16:03;;;;;;;3.65;3.03;;;;;;;;;;5071098;28;20037;-88
2022/05/23 02:18:29;;;;;;;3.50;2.90;;;;;;;;;;5068338;28;20472;-89
2022/05/23 02:20:55;;;;;;;4.38;3.00;;;;;;;;;;5065642;28;20036;-86
2022/05/23 02:23:20;;;;;;;6.43;3.40;;;;;;;;;;5060043;28;20081;-86
2022/05/23 02:25:46;;;;;;;4.03;3.47;;;;;;;;;;5060755;28;20369;-85
2022/05/23 02:28:12;;;;;;;6.22;3.88;;;;;;;;;;5060960;28;20028;-86
2022/05/23 02:30:38;;;;;;;3.63;2.72;;;;;;;;;;5058883;28;20097;-86
2022/05/23 02:33:03;;;;;;;5.45;3.10;;;;;;;;;;5061843;28;20433;-85
2022/05/23 02:35:30;;;;;;;4.97;2.70;;;;;;;;;;5060709;28;20039;-86
2022/05/23 02:37:56;;;;;;;5.45;3.20;;;;;;;;;;5067152;28;20469;-87
2022/05/23 02:40:21;;;;;;;4.43;3.15;;;;;;;;;;5062199;28;20035;-86
2022/05/23 02:42:47;;;;;;;4.75;3.33;;;;;;;;;;5064061;28;20060;-84
2022/05/23 02:45:13;;;;;;;4.30;2.67;;;;;;;;;;5065772;28;20024;-88
2022/05/23 02:47:39;;;;;;;2.92;2.40;;;;;;;;;;5064412;28;20064;-85
2022/05/23 02:50:07;;;;;;;4.10;2.47;;;;;;;;;;5063315;28;20021;-86
2022/05/23 02:52:32;;;;;;;3.58;2.15;;;;;;;;;;5063756;28;20059;-88
2022/05/23 02:54:58;;;;;;;3.95;2.55;;;;;;;;;;5066064;28;20492;-85
2022/05/23 02:57:23;;;;;;;4.03;2.22;;;;;;;;;;5063080;28;20056;-86
2022/05/23 02:59:49;;;;;;;2.72;2.20;;;;;;;;;;5063948;28;20098;-89
2022/05/23 03:04:58;;;;;;;3.03;2.15;;;;;;;;;;5063953;28;20055;-86
2022/05/23 03:07:24;;;;;;;4.30;2.10;;;;;;;;;;5063553;28;20024;-89
2022/05/23 03:09:49;;;;;;;2.92;2.30;;;;;;;;;;5065895;28;20495;-88
2022/05/23 03:12:15;;;;;;;1.92;1.60;;;;;;;;;;5062466;28;20358;-86
2022/05/23 03:14:41;;;;;;;6.47;2.35;;;;;;;;;;5062601;28;20021;-83
2022/05/23 03:17:06;;;;;;;2.63;1.90;;;;;;;;;;5057565;28;20461;-87
2022/05/23 03:19:36;;;;;;;2.75;1.83;;;;;;;;;;5062568;28;20043;-89
2022/05/23 03:27:43;;;;;;;2.05;1.75;;;;;;;;;;5064914;28;20086;-85
2022/05/23 03:30:10;;;;;;;3.47;1.77;;;;;;;;;;5066629;28;20028;-87
2022/05/23 03:32:35;;;;;;;2.35;1.60;;;;;;;;;;5066622;28;20032;-87
2022/05/23 03:35:03;;;;;;;3.05;1.83;;;;;;;;;;5057036;28;20085;-87
2022/05/23 03:37:29;;;;;;;3.40;1.98;;;;;;;;;;5063276;28;20029;-86
2022/05/23 03:39:54;;;;;;;2.20;1.75;;;;;;;;;;5066307;28;20024;-86
2022/05/23 03:42:20;;;;;;;3.13;1.80;;;;;;;;;;5064032;28;20041;-86
2022/05/23 03:44:45;;;;;;;5.13;2.03;;;;;;;;;;5062577;28;20028;-87
2022/05/23 03:47:11;;;;;;;2.33;1.67;;;;;;;;;;5062693;28;20043;-88
2022/05/23 03:49:36;;;;;;;4.43;2.10;;;;;;;;;;5064239;28;20369;-87
2022/05/23 03:52:02;;;;;;;2.65;1.83;;;;;;;;;;5059463;28;20100;-89
2022/05/23 03:54:28;;;;;;;3.75;1.70;;;;;;;;;;5064789;28;20028;-86
2022/05/23 03:57:01;;;;;;;3.35;1.70;;;;;;;;;;5064568;28;20439;-88
2022/05/23 03:59:28;;;;;;;2.35;1.80;;;;;;;;;;5064079;28;20054;-87
2022/05/23 04:01:56;;;;;;;3.33;1.55;;;;;;;;;;5067273;28;20106;-87
2022/05/23 04:04:26;;;;;;;2.72;1.70;;;;;;;;;;5063327;28;20095;-85
2022/05/23 04:06:52;;;;;;;2.22;1.92;;;;;;;;;;5058666;28;20029;-87
2022/05/23 04:09:18;;;;;;;2.25;1.52;;;;;;;;;;5060750;28;20074;-88
2022/05/23 04:11:44;;;;;;;2.53;1.60;;;;;;;;;;5065018;28;20028;-86
2022/05/23 04:14:10;;;;;;;2.83;1.98;;;;;;;;;;5064213;28;20021;-87
2022/05/23 04:16:36;;;;;;;1.73;1.38;;;;;;;;;;5068819;28;20043;-86
2022/05/23 04:19:08;;;;;;;3.22;1.45;;;;;;;;;;5073115;28;20107;-88
2022/05/23 04:21:34;;;;;;;2.20;1.60;;;;;;;;;;5064959;28;20021;-89
2022/05/23 04:23:59;;;;;;;2.05;1.60;;;;;;;;;;5073551;28;20473;-86
2022/05/23 04:26:25;;;;;;;3.00;1.50;;;;;;;;;;5065497;28;20082;-89
2022/05/23 04:28:50;;;;;;;3.78;1.70;;;;;;;;;;5061313;28;20107;-88
2022/05/23 04:31:17;;;;;;;3.20;1.90;;;;;;;;;;5068623;28;20582;-87
2022/05/23 04:36:27;;;;;;;4.75;2.00;;;;;;;;;;5062163;28;20484;-87
2022/05/23 04:38:52;;;;;;;2.75;1.88;;;;;;;;;;5072851;28;20048;-85
2022/05/23 04:41:17;;;;;;;2.78;1.70;;;;;;;;;;5070229;28;20020;-85
2022/05/23 04:43:43;;;;;;;2.80;1.48;;;;;;;;;;5070662;28;20063;-85
2022/05/23 04:46:08;;;;;;;3.08;1.85;;;;;;;;;;5074840;28;20047;-88
2022/05/23 04:51:18;;;;;;;2.58;1.95;;;;;;;;;;5068581;28;20035;-87
2022/05/23 04:53:43;;;;;;;3.40;1.90;;;;;;;;;;5071922;28;20020;-86
2022/05/23 04:56:09;;;;;;;2.80;1.67;;;;;;;;;;5072156;28;20167;-88
2022/05/23 04:58:34;;;;;;;3.00;1.88;;;;;;;;;;5075447;28;20476;-85
2022/05/23 05:01:01;;;;;;;4.28;1.60;;;;;;;;;;5076717;28;20082;-89
2022/05/23 05:03:26;;;;;;;2.85;1.88;;;;;;;;;;5069176;28;20490;-86
2022/05/23 05:05:52;;;;;;;3.45;1.83;;;;;;;;;;5069177;28;20111;-86
2022/05/23 05:08:17;;;;;;;3.72;1.80;;;;;;;;;;5066903;28;20028;-89
2022/05/23 05:10:43;;;;;;;2.85;1.80;;;;;;;;;;5064483;28;20384;-89
2022/05/23 05:13:08;;;;;;;3.40;1.90;;;;;;;;;;5066637;28;20013;-91
2022/05/23 05:15:35;;;;;;;2.38;1.70;;;;;;;;;;5072815;28;20059;-85
2022/05/23 05:18:01;;;;;;;3.65;1.88;;;;;;;;;;5075813;28;20025;-85
2022/05/23 05:20:28;;;;;;;3.30;1.95;;;;;;;;;;5065712;28;20369;-87
2022/05/23 05:22:54;;;;;;;2.88;1.85;;;;;;;;;;5067488;28;20032;-89
2022/05/23 05:25:19;;;;;;;2.83;1.83;;;;;;;;;;5060812;28;20032;-87
2022/05/23 05:27:45;;;;;;;2.38;1.65;;;;;;;;;;5067354;28;20039;-86
2022/05/23 05:30:19;;;;;;;3.80;1.73;;;;;;;;;;5067136;28;20047;-85
2022/05/23 05:32:52;;;;;;;1.92;1.60;;;;;;;;;;5068094;28;20076;-85
2022/05/23 05:35:31;;;;;;;3.42;1.80;;;;;;;;;;5068238;28;20051;-85
2022/05/23 05:38:08;;;;;;;3.60;1.90;;;;;;;;;;5073245;28;20028;-85
2022/05/23 05:40:35;;;;;;;3.33;1.88;;;;;;;;;;5068293;28;20048;-87
2022/05/23 05:43:10;;;;;;;4.13;2.17;;;;;;;;;;5070356;28;20024;-90
2022/05/23 05:46:13;;;;;;;3.15;1.90;;;;;;;;;;5090424;28;20089;-88
2022/05/23 05:48:40;;;;;;;2.75;1.60;;;;;;;;;;5061606;28;20480;-87
2022/05/23 05:51:10;;;;;;;3.75;1.50;;;;;;;;;;5063146;28;20107;-86
2022/05/23 05:53:37;;;;;;;2.05;1.52;;;;;;;;;;5072727;28;20040;-85
2022/05/23 05:56:04;;;;;;;2.35;1.70;;;;;;;;;;5066547;28;20025;-87
2022/05/23 05:58:32;;;;;;;18.38;4.72;;;;;;;;;;5073593;28;20478;-86
2022/05/23 06:00:57;;;;;;;4.10;1.55;;;;;;;;;;5069928;28;20032;-86
2022/05/23 06:03:23;;;;;;;8.82;2.75;;;;;;;;;;5071924;28;20028;-84
2022/05/23 06:11:29;;;;;;;34.92;7.18;;;;;;;;;;5069307;28;20059;-86
2022/05/23 06:14:00;;;;;;;23.90;4.18;;;;;;;;;;5068830;28;20091;-85
2022/05/23 06:16:28;;;;;;;7.40;2.67;;;;;;;;;;5080480;28;20027;-87
2022/05/23 06:18:53;;;;;;;90.32;15.50;;;;;;;;;;5075811;28;20039;-85
2022/05/23 06:21:21;;;;;;;102.00;19.90;;;;;;;;;;5074671;28;20024;-85
2022/05/23 06:23:46;;;;;;;51.28;7.75;;;;;;;;;;5070680;28;20802;-87
2022/05/23 06:26:14;;;;;;;22.00;3.30;;;;;;;;;;5072242;28;20027;-88
2022/05/23 06:28:40;;;;;;;12.30;2.88;;;;;;;;;;5072536;28;20024;-86
2022/05/23 06:31:05;;;;;;;19.20;5.00;;;;;;;;;;5069518;28;20106;-84
2022/05/23 06:33:31;;;;;;;1.33;1.13;;;;;;;;;;5066015;28;20530;-89
2022/05/23 06:35:57;;;;;;;4.40;1.63;;;;;;;;;;5064492;28;20452;-87
2022/05/23 06:38:24;;;;;;;13.55;2.65;;;;;;;;;;5069243;28;20020;-87
2022/05/23 06:40:53;;;;;;;3.28;1.48;;;;;;;;;;5067105;28;20362;-87
2022/05/23 06:43:19;;;;;;;6.57;2.10;;;;;;;;;;5060433;28;20035;-87
2022/05/23 06:45:45;;;;;;;1.70;1.13;;;;;;;;;;5063047;28;20036;-84
2022/05/23 06:48:11;;;;;;;1.70;1.20;;;;;;;;;;5055833;28;20444;-89
2022/05/23 06:50:37;;;;;;;2.17;1.33;;;;;;;;;;5066399;28;20127;-85
2022/05/23 06:53:05;;;;;;;4.65;1.48;;;;;;;;;;5058303;28;20032;-89
2022/05/23 06:55:31;;;;;;;5.78;1.70;;;;;;;;;;5066830;28;20031;-85
2022/05/23 06:57:56;;;;;;;6.60;1.88;;;;;;;;;;5059203;28;20103;-87
2022/05/23 07:00:22;;;;;;;3.78;1.65;;;;;;;;;;5064164;28;20017;-88
2022/05/23 07:02:47;;;;;;;4.80;1.40;;;;;;;;;;5065799;28;20041;-86
2022/05/23 07:13:26;;;;;;;4.55;1.75;;;;;;;;;;5071156;28;20437;-86
2022/05/23 07:15:55;;;;;;;4.10;1.73;;;;;;;;;;5069052;28;20107;-88
2022/05/23 07:18:23;;;;;;;2.90;1.23;;;;;;;;;;5068651;28;20099;-89
2022/05/23 07:20:49;;;;;;;2.17;1.50;;;;;;;;;;5065273;28;20476;-85
2022/05/23 07:23:15;;;;;;;7.82;2.20;;;;;;;;;;5067430;28;20191;-86
2022/05/23 07:25:41;;;;;;;5.75;1.85;;;;;;;;;;5068209;28;20090;-86
2022/05/23 07:28:08;;;;;;;7.05;2.22;;;;;;;;;;5063733;28;20024;-87
2022/05/23 07:30:33;;;;;;;2.15;1.60;;;;;;;;;;5064360;28;20029;-87
2022/05/23 07:32:59;;;;;;;4.10;2.33;;;;;;;;;;5066498;28;20365;-85
2022/05/23 07:35:25;;;;;;;2.65;1.88;;;;;;;;;;5060668;28;20108;-89
2022/05/23 07:37:51;;;;;;;2.30;1.70;;;;;;;;;;5065176;28;20080;-86
2022/05/23 07:40:17;;;;;;;2.72;1.90;;;;;;;;;;5061433;28;20032;-83
2022/05/23 07:42:43;;;;;;;2.78;1.70;;;;;;;;;;5068780;28;20491;-85
2022/05/23 07:45:10;;;;;;;4.50;2.03;;;;;;;;;;5065580;28;20090;-85
2022/05/23 07:47:35;;;;;;;4.07;1.98;;;;;;;;;;5065212;28;20082;-86
2022/05/23 07:50:01;;;;;;;2.78;1.98;;;;;;;;;;5064234;28;20028;-86
2022/05/23 07:52:27;;;;;;;6.47;2.63;;;;;;;;;;5065479;28;20035;-83
2022/05/23 08:00:31;;;;;;;4.00;2.30;;;;;;;;;;5061782;28;20043;-85
2022/05/23 08:03:02;;;;;;;2.40;1.70;;;;;;;;;;5065327;28;20529;-87
2022/05/23 08:05:27;;;;;;;8.57;2.50;;;;;;;;;;5062704;28;20043;-82
2022/05/23 08:07:53;;;;;;;5.82;2.85;;;;;;;;;;5065262;28;20115;-83
2022/05/23 08:10:19;;;;;;;4.68;2.55;;;;;;;;;;5067655;28;20445;-84
2022/05/23 08:12:50;;;;;;;4.35;2.30;;;;;;;;;;5064895;28;20028;-85
2022/05/23 08:15:15;;;;;;;6.47;2.58;;;;;;;;;;5068002;28;20036;-83
2022/05/23 08:17:43;;;;;;;8.57;2.30;;;;;;;;;;5068383;28;20043;-83
2022/05/23 08:20:09;;;;;;;4.18;2.40;;;;;;;;;;5068479;28;20052;-88
2022/05/23 08:22:34;;;;;;;4.50;2.35;;;;;;;;;;5086060;28;20060;-86
2022/05/23 08:24:59;;;;;;;5.53;2.70;;;;;;;;;;5068905;28;20032;-87
2022/05/23 08:27:25;;;;;;;3.53;2.70;;;;;;;;;;5061306;28;20033;-85
2022/05/23 08:29:52;;;;;;;3.75;2.50;;;;;;;;;;5064067;28;20074;-84
2022/05/23 08:32:20;;;;;;;3.55;2.38;;;;;;;;;;5062284;28;20016;-84
2022/05/23 08:34:47;;;;;;;7.97;2.45;;;;;;;;;;5059029;28;20028;-82
2022/05/23 08:37:17;;;;;;;5.38;3.75;;;;;;;;;;5065935;28;20055;-84
2022/05/23 08:39:43;;;;;;;;;;;;;;;;;;5068069;28;20028;-85
2022/05/23 08:42:25;;;;;;;2.78;1.77;;;;;;;;;;5064993;28;20319;-85
2022/05/23 08:45:01;;;;;;;15.40;12.45;;;;;;;;;;5068317;28;20147;-85
2022/05/23 08:47:53;;;;;;;3.45;2.00;;;;;;;;;;5068380;28;20025;-83
2022/05/23 08:50:41;;;;;;;4.60;2.00;;;;;;;;;;5072487;28;20032;-85
2022/05/23 08:53:18;;;;;;;4.85;2.17;;;;;;;;;;5070601;28;20025;-86
2022/05/23 08:55:48;;;;;;;4.22;2.38;;;;;;;;;;5063125;28;20086;-87
2022/05/23 08:58:20;;;;;;;;;;;;;;;;;;5067536;28;20052;-84
2022/05/23 09:00:56;;;;;;;3.92;2.35;;;;;;;;;;5073430;28;19930;-85
2022/05/23 09:03:39;;;;;;;2.30;1.95;;;;;;;;;;5070173;28;20033;-85
2022/05/23 09:06:28;;;;;;;2.50;1.80;;;;;;;;;;5069506;28;20029;-86
2022/05/23 09:08:57;;;;;;;2.58;1.80;;;;;;;;;;5066857;28;20162;-87
2022/05/23 09:11:24;;;;;;;11.35;3.45;;;;;;;;;;5066434;28;20031;-86
2022/05/23 09:13:51;;;;;;;3.30;1.70;;;;;;;;;;5065622;28;20479;-85
2022/05/23 09:16:17;;;;;;;6.20;1.52;;;;;;;;;;5063323;28;20024;-87
2022/05/23 09:18:46;;;;;;;3.53;1.95;;;;;;;;;;5061499;28;20507;-85
2022/05/23 09:21:12;;;;;;;3.92;1.60;;;;;;;;;;5063294;28;20143;-85
2022/05/23 09:23:45;;;;;;;13.15;10.07;;;;;;;;;;5069666;28;20524;-84
2022/05/23 09:26:29;;;;;;;3.25;1.67;;;;;;;;;;5064938;28;20028;-84
2022/05/23 09:28:55;;;;;;;2.25;1.80;;;;;;;;;;5074941;28;20414;-85
2022/05/23 09:31:33;;;;;;;5.05;1.52;;;;;;;;;;5071186;28;20510;-87
2022/05/23 09:33:59;;;;;;;3.30;2.13;;;;;;;;;;5069045;28;20062;-85
2022/05/23 09:36:30;;;;;;;2.50;1.77;;;;;;;;;;5073179;28;20395;-86
2022/05/23 09:39:01;;;;;;;3.63;2.78;;;;;;;;;;5075954;28;20094;-84
2022/05/23 09:49:53;;;;;;;3.03;1.73;;;;;;;;;;5071512;28;20098;-84
2022/05/23 09:52:43;;;;;;;2.08;1.52;;;;;;;;;;5071333;28;20071;-85
2022/05/23 09:55:10;;;;;;;;;;;;;;;;;;5075870;28;20107;-83
2022/05/23 09:58:00;;;;;;;3.63;1.70;;;;;;;;;;5106624;27;19923;-86
2022/05/23 10:00:25;;;;;;;1.63;1.45;;;;;;;;;;5065896;28;20032;-84
2022/05/23 10:03:01;;;;;;;3.05;2.40;;;;;;;;;;5070763;28;20032;-83
2022/05/23 10:05:40;;;;;;;4.50;2.38;;;;;;;;;;5065933;28;20024;-84
2022/05/23 10:08:11;;;;;;;4.30;1.65;;;;;;;;;;5074635;28;20388;-84
2022/05/23 10:10:51;;;;;;;2.70;1.85;;;;;;;;;;5074650;28;20174;-85
2022/05/23 10:13:41;;;;;;;3.70;1.73;;;;;;;;;;5070603;28;20013;-83
2022/05/23 10:16:09;;;;;;;2.55;1.92;;;;;;;;;;5064030;28;20081;-82
2022/05/23 10:18:44;;;;;;;4.20;1.67;;;;;;;;;;5063438;28;20464;-84
2022/05/23 10:21:40;;;;;;;3.58;1.58;;;;;;;;;;5060158;28;20523;-85
2022/05/23 10:24:17;;;;;;;2.22;1.50;;;;;;;;;;5071159;28;20028;-83
2022/05/23 10:27:17;;;;;;;5.50;1.70;;;;;;;;;;5068939;28;20034;-83
2022/05/23 10:30:01;;;;;;;2.33;1.70;;;;;;;;;;5040004;28;20048;-85
2022/05/23 10:32:59;;;;;;;3.22;1.65;;;;;;;;;;5067721;28;20023;-82
2022/05/23 10:35:50;;;;;;;3.50;1.40;;;;;;;;;;5066833;28;20036;-86
2022/05/23 10:44:09;;;;;;;2.70;2.05;;;;;;;;;;5070337;28;20430;-85
2022/05/23 10:46:44;;;;;;;2.78;1.58;;;;;;;;;;5074714;28;20039;-85
2022/05/23 10:49:20;;;;;;;3.35;1.95;;;;;;;;;;5073053;28;20036;-86
2022/05/23 10:52:07;;;;;;;1.83;1.20;;;;;;;;;;5068358;28;20115;-86
2022/05/23 10:54:40;;;;;;;2.53;1.42;;;;;;;;;;5072597;28;20531;-86
2022/05/23 10:57:31;;;;;;;2.00;1.50;;;;;;;;;;5073572;28;20143;-85
2022/05/23 11:00:11;;;;;;;1.95;1.38;;;;;;;;;;5065935;28;20091;-88
2022/05/23 11:02:55;;;;;;;1.65;1.38;;;;;;;;;;5066009;28;20036;-83
2022/05/23 11:05:51;;;;;;;2.63;1.50;;;;;;;;;;5071573;28;20077;-85
2022/05/23 11:09:16;;;;;;;3.55;1.50;;;;;;;;;;5074073;28;20094;-85
2022/05/23 11:11:53;;;;;;;4.10;1.23;;;;;;;;;;5014753;28;20036;-85
2022/05/23 11:14:32;;;;;;;2.28;1.33;;;;;;;;;;5014668;28;20088;-87
2022/05/23 11:17:17;;;;;;;1.77;1.30;;;;;;;;;;5050977;28;20441;-90
2022/05/23 11:20:24;;;;;;;4.40;1.52;;;;;;;;;;5075964;28;20024;-87
2022/05/23 11:22:59;;;;;;;4.68;1.35;;;;;;;;;;5070592;28;20028;-85
2022/05/23 11:25:31;;;;;;;2.72;1.30;;;;;;;;;;5069884;28;20020;-86
2022/05/23 11:34:16;;;;;;;2.22;1.40;;;;;;;;;;5071705;28;20035;-86
2022/05/23 11:37:08;;;;;;;1.50;1.20;;;;;;;;;;5078803;28;20057;-87
2022/05/23 11:39:53;;;;;;;2.15;1.40;;;;;;;;;;5071989;28;20028;-84
2022/05/23 11:42:24;;;;;;;8.25;1.60;;;;;;;;;;5066193;28;20024;-87
2022/05/23 11:44:50;;;;;;;3.50;1.50;;;;;;;;;;5059803;28;20078;-89
2022/05/23 11:47:23;;;;;;;2.30;1.42;;;;;;;;;;5071678;28;20025;-85
2022/05/23 11:50:05;;;;;;;2.60;1.20;;;;;;;;;;5058197;28;20025;-86
2022/05/23 11:52:47;;;;;;;3.15;1.60;;;;;;;;;;5073299;28;20050;-86
2022/05/23 11:55:50;;;;;;;6.53;1.40;;;;;;;;;;5067887;28;20468;-89
2022/05/23 11:58:40;;;;;;;3.92;1.38;;;;;;;;;;5069687;28;20017;-87
2022/05/23 12:01:12;;;;;;;2.33;1.25;;;;;;;;;;5073973;28;20046;-88
2022/05/23 12:03:47;;;;;;;2.17;1.40;;;;;;;;;;5074658;28;20064;-85
2022/05/23 12:06:35;;;;;;;2.75;1.77;;;;;;;;;;5065804;28;20028;-86
2022/05/23 12:09:05;;;;;;;3.20;1.40;;;;;;;;;;5072298;28;20807;-87
2022/05/23 12:11:43;;;;;;;3.55;1.20;;;;;;;;;;5066761;28;20020;-86
2022/05/23 12:14:21;;;;;;;6.82;1.40;;;;;;;;;;5069787;28;20460;-88
2022/05/23 12:16:49;;;;;;;7.13;1.80;;;;;;;;;;5065862;28;20541;-87
2022/05/23 12:19:27;;;;;;;1.58;1.40;;;;;;;;;;5076044;28;20385;-87
2022/05/23 12:22:14;;;;;;;4.27;1.50;;;;;;;;;;5067124;28;20030;-88
2022/05/23 12:25:07;;;;;;;2.08;1.40;;;;;;;;;;5068412;28;20036;-88
2022/05/23 12:27:44;;;;;;;3.35;1.30;;;;;;;;;;5070240;28;20380;-85
2022/05/23 12:30:23;;;;;;;2.10;1.40;;;;;;;;;;5070212;28;20048;-87
2022/05/23 12:33:00;;;;;;;2.78;1.70;;;;;;;;;;5075865;28;20375;-87
2022/05/23 12:35:48;;;;;;;2.28;1.20;;;;;;;;;;5071491;28;20031;-87
2022/05/23 12:38:28;;;;;;;2.47;1.23;;;;;;;;;;5072160;28;20037;-88
2022/05/23 12:41:15;;;;;;;2.65;1.20;;;;;;;;;;5064853;28;20066;-87
2022/05/23 12:44:04;;;;;;;3.40;1.70;;;;;;;;;;5063252;28;20049;-88
2022/05/23 12:46:32;;;;;;;2.25;1.33;;;;;;;;;;5064920;28;20485;-90
2022/05/23 12:49:26;;;;;;;2.10;1.20;;;;;;;;;;5062883;28;20031;-87
2022/05/23 12:55:32;;;;;;;3.65;1.65;;;;;;;;;;5064156;28;20081;-87
2022/05/23 12:58:24;;;;;;;2.58;1.30;;;;;;;;;;5069434;28;20094;-85
2022/05/23 13:00:55;;;;;;;3.25;1.60;;;;;;;;;;5042108;28;20048;-84
2022/05/23 13:03:33;;;;;;;3.13;1.45;;;;;;;;;;5068099;28;20025;-86
2022/05/23 13:06:09;;;;;;;3.67;1.40;;;;;;;;;;5063978;28;20074;-85
2022/05/23 13:08:42;;;;;;;1.80;1.38;;;;;;;;;;5068252;28;20024;-88
2022/05/23 13:11:16;;;;;;;3.50;1.35;;;;;;;;;;5068460;28;20128;-85
2022/05/23 13:13:45;;;;;;;3.35;1.85;;;;;;;;;;5065798;28;20027;-88
2022/05/23 13:16:29;;;;;;;2.13;1.60;;;;;;;;;;5070638;28;20020;-83
2022/05/23 13:27:12;;;;;;;1.63;1.52;;;;;;;;;;5074607;28;20043;-84
2022/05/23 13:29:38;;;;;;;2.83;1.50;;;;;;;;;;5071007;28;20036;-85
2022/05/23 13:32:08;;;;;;;3.20;1.58;;;;;;;;;;5072463;28;20047;-87
2022/05/23 13:34:36;;;;;;;2.97;1.60;;;;;;;;;;5064388;28;20032;-85
2022/05/23 13:37:04;;;;;;;2.00;1.40;;;;;;;;;;5073171;28;20074;-86
2022/05/23 13:39:29;;;;;;;3.92;1.88;;;;;;;;;;5072842;28;20052;-86
2022/05/23 13:41:56;;;;;;;5.40;2.00;;;;;;;;;;5073097;28;20110;-89
2022/05/23 13:44:27;;;;;;;2.83;1.67;;;;;;;;;;5073760;28;20089;-86
2022/05/23 13:47:07;;;;;;;1.95;1.70;;;;;;;;;;5081562;28;20024;-90
2022/05/23 13:49:48;;;;;;;3.72;2.35;;;;;;;;;;5059249;28;20110;-87
2022/05/23 13:52:28;;;;;;;3.58;1.85;;;;;;;;;;5062226;28;20182;-88
2022/05/23 13:55:01;;;;;;;5.97;1.67;;;;;;;;;;5072284;28;20032;-85
2022/05/23 13:57:34;;;;;;;5.07;2.20;;;;;;;;;;5070111;28;20020;-87
2022/05/23 14:00:06;;;;;;;2.53;1.50;;;;;;;;;;5068515;28;20098;-88
2022/05/23 14:02:39;;;;;;;3.65;1.90;;;;;;;;;;5064970;28;20506;-84
2022/05/23 14:05:06;;;;;;;6.75;1.73;;;;;;;;;;5064610;28;20025;-87
2022/05/23 14:07:36;;;;;;;3.45;1.60;;;;;;;;;;5068944;28;20404;-90
2022/05/23 14:10:03;;;;;;;3.03;1.75;;;;;;;;;;5070024;28;20032;-86
2022/05/23 14:12:34;;;;;;;2.50;1.85;;;;;;;;;;5068284;28;20064;-89
2022/05/23 14:15:08;;;;;;;3.95;1.77;;;;;;;;;;5064826;28;20075;-88
2022/05/23 14:17:49;;;;;;;2.47;1.90;;;;;;;;;;5063429;28;20020;-86
2022/05/23 14:20:29;;;;;;;2.97;1.75;;;;;;;;;;5086221;28;20032;-88
2022/05/23 14:23:10;;;;;;;3.47;1.80;;;;;;;;;;5065543;28;20032;-87
2022/05/23 14:25:35;;;;;;;7.10;1.90;;;;;;;;;;5070273;28;20392;-88
2022/05/23 14:28:18;;;;;;;3.00;1.90;;;;;;;;;;5069245;28;20024;-86
2022/05/23 14:30:46;;;;;;;3.28;1.83;;;;;;;;;;5068419;28;20028;-88
2022/05/23 14:33:47;;;;;;;2.20;1.60;;;;;;;;;;5062614;28;20060;-86
2022/05/23 14:36:21;;;;;;;2.72;1.60;;;;;;;;;;5066494;28;20029;-88
2022/05/23 14:38:46;;;;;;;3.33;1.75;;;;;;;;;;5069702;28;20052;-86
2022/05/23 14:41:23;;;;;;;4.13;1.95;;;;;;;;;;5065263;28;20067;-86
2022/05/23 14:44:06;;;;;;;2.25;1.83;;;;;;;;;;5064346;28;20028;-86
2022/05/23 14:46:34;;;;;;;6.45;1.80;;;;;;;;;;5063436;28;20540;-89
2022/05/23 14:49:11;;;;;;;2.88;1.90;;;;;;;;;;5066073;28;20051;-86
2022/05/23 14:51:40;;;;;;;2.13;1.65;;;;;;;;;;5060795;28;20029;-84
2022/05/23 14:56:55;;;;;;;4.65;2.03;;;;;;;;;;5064817;28;20446;-86
2022/05/23 15:02:23;;;;;;;5.55;1.77;;;;;;;;;;5071155;28;20056;-90
2022/05/23 15:04:49;;;;;;;3.00;1.83;;;;;;;;;;5067673;28;20036;-89
2022/05/23 15:07:17;;;;;;;3.92;2.00;;;;;;;;;;5063438;28;20025;-89
2022/05/23 15:09:43;;;;;;;2.83;1.90;;;;;;;;;;5071459;28;20090;-88
2022/05/23 15:12:11;;;;;;;2.97;1.70;;;;;;;;;;5070277;28;20012;-88
2022/05/23 15:14:38;;;;;;;3.10;1.90;;;;;;;;;;5075458;28;20679;-87
2022/05/23 15:17:10;;;;;;;3.08;1.85;;;;;;;;;;5070187;28;20024;-87
2022/05/23 15:19:35;;;;;;;3.08;1.83;;;;;;;;;;5063349;28;20029;-86
2022/05/23 15:22:01;;;;;;;4.65;2.10;;;;;;;;;;5068495;28;20055;-86
2022/05/23 15:24:26;;;;;;;4.40;2.05;;;;;;;;;;5070118;28;20127;-87
2022/05/23 15:26:52;;;;;;;2.03;1.65;;;;;;;;;;5076554;28;20093;-84
2022/05/23 15:29:18;;;;;;;5.18;2.15;;;;;;;;;;5073146;28;20024;-86
2022/05/23 15:31:51;;;;;;;2.83;1.85;;;;;;;;;;5068792;28;20130;-89
2022/05/23 15:34:18;;;;;;;3.53;2.00;;;;;;;;;;5058098;28;20040;-87
2022/05/23 15:36:44;;;;;;;3.95;1.95;;;;;;;;;;5060892;28;20032;-85
2022/05/23 15:39:10;;;;;;;2.75;1.70;;;;;;;;;;5071167;28;20032;-84
2022/05/23 15:41:43;;;;;;;2.10;1.58;;;;;;;;;;5064236;28;20428;-83
2022/05/23 15:44:15;;;;;;;2.08;1.63;;;;;;;;;;5075486;28;20028;-84
2022/05/23 15:46:43;;;;;;;3.53;1.73;;;;;;;;;;5065976;28;20035;-87
2022/05/23 15:49:10;;;;;;;3.95;1.92;;;;;;;;;;5067695;28;20024;-86
2022/05/23 15:51:39;;;;;;;2.70;1.80;;;;;;;;;;5074198;28;20025;-84
2022/05/23 15:54:06;;;;;;;2.70;1.92;;;;;;;;;;5073390;28;20024;-84
2022/05/23 15:56:32;;;;;;;4.95;1.88;;;;;;;;;;5066630;28;20750;-84
2022/05/23 15:58:58;;;;;;;3.42;1.90;;;;;;;;;;5077349;28;20024;-86
2022/05/23 16:01:24;;;;;;;3.17;1.90;;;;;;;;;;5066105;28;20044;-90
2022/05/23 16:03:50;;;;;;;3.25;1.92;;;;;;;;;;5065126;28;20032;-86
2022/05/23 16:06:17;;;;;;;3.08;1.70;;;;;;;;;;5077010;28;20036;-86
2022/05/23 16:08:50;;;;;;;4.45;1.92;;;;;;;;;;5074177;28;20085;-86
2022/05/23 16:11:23;;;;;;;2.42;1.80;;;;;;;;;;5074446;28;20032;-85
2022/05/23 16:13:51;;;;;;;6.40;2.47;;;;;;;;;;5062835;28;20029;-85
2022/05/23 16:16:21;;;;;;;2.65;1.83;;;;;;;;;;5055964;28;20119;-84
2022/05/23 16:18:48;;;;;;;3.25;1.98;;;;;;;;;;5064504;28;20472;-82
2022/05/23 16:21:14;;;;;;;2.97;1.75;;;;;;;;;;5068580;28;20040;-83
2022/05/23 16:23:39;;;;;;;3.40;1.90;;;;;;;;;;5066832;28;20036;-82
2022/05/23 16:26:05;;;;;;;5.20;2.08;;;;;;;;;;5065077;28;20044;-84